CYQA

Muskoka Airport

Muskoka, , Canada
METAR CYQA 161000Z AUTO 32007KT 9SM SCT055 OVC075 M10/M14 A2977 RMK SLP101
Observed Flight Rules
Dec-16 @ 10:00 UTC (an hour ago) Visual Flight Rules
Wind Visibility Clouds
320° at 7 knots 9 miles
  • Scattered at 5,500' AGL
  • Overcast at 7,500' AGL
Temperatures Readings
Current -10°C / 14°F
Dewpoint -14°C / 7°F
Humidity 73%
Altimeter 29.77" Hg
Pressure 1010.1 hPa
Elevation 282
METAR CYQA 161000Z AUTO 32007KT 9SM SCT055 OVC075 M10/M14 A2977 RMK SLP101
Observed Flight Rules
Dec-16 @ 10:00 UTC
(an hour ago)
VFR
Wind Visibility
320° at 7 knots 9 miles
Clouds
  • Scattered at 5,500' AGL
  • Overcast at 7,500' AGL
Temperature Dewpoint
-10°C / 14°F -14°C / 7°F
Humidity Altimeter Pressure
73% 29.77" Hg 1010.1 hPa